createdAt,value
2018-06-04T00:00:01.241Z,17.31
2018-06-04T00:01:01.471Z,17.33
2018-06-04T00:02:01.708Z,17.24
2018-06-04T00:03:01.937Z,17.26
2018-06-04T00:04:02.167Z,17.12
2018-06-04T00:05:02.400Z,17.15
2018-06-04T00:06:02.631Z,17.05
2018-06-04T00:07:02.855Z,17.06
2018-06-04T00:08:03.089Z,17.16
2018-06-04T00:09:03.325Z,16.97
2018-06-04T00:10:03.557Z,17.05
2018-06-04T00:11:03.794Z,17.05
2018-06-04T00:12:04.017Z,17.08
2018-06-04T00:13:04.285Z,17.14
2018-06-04T00:14:04.510Z,17.14
2018-06-04T00:15:04.739Z,17.15
2018-06-04T00:16:04.971Z,17.08
2018-06-04T00:17:05.203Z,16.99
2018-06-04T00:18:05.437Z,17.12
2018-06-04T00:19:05.666Z,17.05
2018-06-04T00:20:05.899Z,17.02
2018-06-04T00:21:06.129Z,17.09
2018-06-04T00:22:06.358Z,17.08
2018-06-04T00:23:06.590Z,17.09
2018-06-04T00:24:06.818Z,17.08
2018-06-04T00:25:07.052Z,17.09
2018-06-04T00:26:07.279Z,17.04
2018-06-04T00:27:07.508Z,16.96
2018-06-04T00:28:07.741Z,16.84
2018-06-04T00:29:07.973Z,17.01
2018-06-04T00:30:08.204Z,16.97
2018-06-04T00:31:08.434Z,17.01
2018-06-04T00:32:08.664Z,16.94
2018-06-04T00:33:08.897Z,16.87
2018-06-04T00:34:09.127Z,16.76
2018-06-04T00:35:09.358Z,16.84
2018-06-04T00:36:09.590Z,16.84
2018-06-04T00:37:09.820Z,16.94
2018-06-04T00:38:10.054Z,16.94
2018-06-04T00:39:10.283Z,16.91
2018-06-04T00:40:10.519Z,16.86
2018-06-04T00:41:10.747Z,16.94
2018-06-04T00:42:10.976Z,16.96
2018-06-04T00:43:11.208Z,16.86
2018-06-04T00:44:11.436Z,16.89
2018-06-04T00:45:11.674Z,16.83
2018-06-04T00:46:11.901Z,16.78
2018-06-04T00:47:12.133Z,16.86
2018-06-04T00:48:12.371Z,16.84
2018-06-04T00:49:12.590Z,16.74
2018-06-04T00:50:12.848Z,16.74
2018-06-04T00:51:13.072Z,16.74
2018-06-04T00:52:13.300Z,16.66
2018-06-04T00:53:13.527Z,16.68
2018-06-04T00:54:13.761Z,16.61
2018-06-04T00:55:13.993Z,16.66
2018-06-04T00:56:14.229Z,16.66
2018-06-04T00:57:14.456Z,16.68
2018-06-04T00:58:14.691Z,16.64
2018-06-04T00:59:14.919Z,16.43
2018-06-04T01:00:15.150Z,16.41
2018-06-04T01:01:15.379Z,16.39
2018-06-04T01:02:15.613Z,16.38
2018-06-04T01:03:15.846Z,16.49
2018-06-04T01:04:16.075Z,16.46
2018-06-04T01:05:16.308Z,16.49
2018-06-04T01:06:16.540Z,16.56
2018-06-04T01:07:16.771Z,16.51
2018-06-04T01:08:17.000Z,16.41
2018-06-04T01:09:17.233Z,16.35
2018-06-04T01:10:17.465Z,16.49
2018-06-04T01:11:17.697Z,16.42
2018-06-04T01:12:17.927Z,16.50
2018-06-04T01:13:18.161Z,16.41
2018-06-04T01:14:18.392Z,16.29
2018-06-04T01:15:18.621Z,16.33
2018-06-04T01:16:18.860Z,16.41
2018-06-04T01:17:19.088Z,16.39
2018-06-04T01:18:19.318Z,16.35
2018-06-04T01:19:19.547Z,16.38
2018-06-04T01:20:19.779Z,16.51
2018-06-04T01:21:20.011Z,16.43
2018-06-04T01:22:20.239Z,16.32
2018-06-04T01:23:20.470Z,16.42
2018-06-04T01:24:20.705Z,16.38
2018-06-04T01:25:20.939Z,16.21
2018-06-04T01:26:21.171Z,16.09
2018-06-04T01:27:21.397Z,16.17
2018-06-04T01:28:21.636Z,16.21
2018-06-04T01:29:21.867Z,16.29
2018-06-04T01:30:22.095Z,16.36
2018-06-04T01:31:22.326Z,16.36
2018-06-04T01:32:22.564Z,16.36
2018-06-04T01:33:22.798Z,16.33
2018-06-04T01:34:23.026Z,16.20
2018-06-04T01:35:23.257Z,16.32
2018-06-04T01:36:23.486Z,16.38
2018-06-04T01:37:23.728Z,16.20
2018-06-04T01:38:23.954Z,16.23
2018-06-04T01:39:24.186Z,16.17
2018-06-04T01:40:24.415Z,16.21
2018-06-04T01:41:24.645Z,16.16
2018-06-04T01:42:24.877Z,16.10
2018-06-04T01:43:25.109Z,16.23
2018-06-04T01:44:25.342Z,16.21
2018-06-04T01:45:25.573Z,16.29
2018-06-04T01:46:25.802Z,16.31
2018-06-04T01:47:26.033Z,16.33
2018-06-04T01:48:26.264Z,16.17
2018-06-04T01:49:26.496Z,16.33
2018-06-04T01:50:26.729Z,16.26
2018-06-04T01:51:26.960Z,16.28
2018-06-04T01:52:27.190Z,16.10
2018-06-04T01:53:27.419Z,16.12
2018-06-04T01:54:27.643Z,16.16
2018-06-04T01:55:27.881Z,15.92
2018-06-04T01:56:28.104Z,15.98
2018-06-04T01:57:28.335Z,15.97
2018-06-04T01:58:28.565Z,16.01
2018-06-04T01:59:28.797Z,16.01
2018-06-04T02:00:29.027Z,15.88
2018-06-04T02:01:29.258Z,15.92
2018-06-04T02:02:29.491Z,15.98
2018-06-04T02:03:29.724Z,16.00
2018-06-04T02:04:29.952Z,15.92
2018-06-04T02:05:30.184Z,15.98
2018-06-04T02:06:30.415Z,16.09
2018-06-04T02:07:30.648Z,16.09
2018-06-04T02:08:30.879Z,16.04
2018-06-04T02:09:31.109Z,15.98
2018-06-04T02:10:31.340Z,15.88
2018-06-04T02:11:31.571Z,15.97
2018-06-04T02:12:31.804Z,15.94
2018-06-04T02:13:32.032Z,16.01
2018-06-04T02:14:32.264Z,15.88
2018-06-04T02:15:32.499Z,15.92
2018-06-04T02:16:32.727Z,15.88
2018-06-04T02:17:32.960Z,15.91
2018-06-04T02:18:33.191Z,15.82
2018-06-04T02:19:33.421Z,15.88
2018-06-04T02:20:33.651Z,15.92
2018-06-04T02:21:33.884Z,15.88
2018-06-04T02:22:34.115Z,15.91
2018-06-04T02:23:34.351Z,15.82
2018-06-04T02:24:34.579Z,15.88
2018-06-04T02:25:34.811Z,15.90
2018-06-04T02:26:35.042Z,15.86
2018-06-04T02:27:35.274Z,15.86
2018-06-04T02:28:35.507Z,15.91
2018-06-04T02:29:35.735Z,15.90
2018-06-04T02:30:35.965Z,15.84
2018-06-04T02:31:36.197Z,15.77
2018-06-04T02:32:36.426Z,15.77
2018-06-04T02:33:36.661Z,15.94
2018-06-04T02:34:36.889Z,15.88
2018-06-04T02:35:37.119Z,15.86
2018-06-04T02:36:37.352Z,15.92
2018-06-04T02:37:37.581Z,15.92
2018-06-04T02:38:37.813Z,15.91
2018-06-04T02:39:38.044Z,15.86
2018-06-04T02:40:38.275Z,15.84
2018-06-04T02:41:38.506Z,15.82
2018-06-04T02:42:38.740Z,15.86
2018-06-04T02:43:38.969Z,15.88
2018-06-04T02:44:39.202Z,15.91
2018-06-04T02:45:39.432Z,15.82
2018-06-04T02:46:39.665Z,15.84
2018-06-04T02:47:39.892Z,15.80
2018-06-04T02:48:40.123Z,15.72
2018-06-04T02:49:40.354Z,15.76
2018-06-04T02:50:40.586Z,15.76
2018-06-04T02:51:40.817Z,15.76
2018-06-04T02:52:41.049Z,15.70
2018-06-04T02:53:41.277Z,15.76
2018-06-04T02:54:41.507Z,15.76
2018-06-04T02:55:41.739Z,15.86
2018-06-04T02:56:41.970Z,15.86
2018-06-04T02:57:42.212Z,15.77
2018-06-04T02:58:42.432Z,15.70
2018-06-04T02:59:42.660Z,15.76
2018-06-04T03:00:42.894Z,15.67
2018-06-04T03:01:43.125Z,15.77
2018-06-04T03:02:43.369Z,15.80
2018-06-04T03:03:43.588Z,15.77
2018-06-04T03:04:43.828Z,15.79
2018-06-04T03:05:44.051Z,15.90
2018-06-04T03:06:44.286Z,15.88
2018-06-04T03:07:44.515Z,15.82
2018-06-04T03:08:44.746Z,15.82
2018-06-04T03:09:44.977Z,15.76
2018-06-04T03:10:45.208Z,15.75
2018-06-04T03:11:45.441Z,15.80
2018-06-04T03:12:45.674Z,15.75
2018-06-04T03:13:45.903Z,15.79
2018-06-04T03:14:46.133Z,15.65
2018-06-04T03:15:46.362Z,15.64
2018-06-04T03:16:46.598Z,15.68
2018-06-04T03:17:46.827Z,15.68
2018-06-04T03:18:47.058Z,15.62
2018-06-04T03:19:47.291Z,15.65
2018-06-04T03:20:47.521Z,15.59
2018-06-04T03:21:47.751Z,15.70
2018-06-04T03:22:47.982Z,15.68
2018-06-04T03:23:48.215Z,15.70
2018-06-04T03:24:48.446Z,15.67
2018-06-04T03:25:48.677Z,15.75
2018-06-04T03:26:48.909Z,15.67
2018-06-04T03:27:49.141Z,15.75
2018-06-04T03:28:49.376Z,15.67
2018-06-04T03:29:49.601Z,15.75
2018-06-04T03:30:49.836Z,15.73
2018-06-04T03:31:50.069Z,15.72
2018-06-04T03:32:50.301Z,15.59
2018-06-04T03:33:50.533Z,15.65
2018-06-04T03:34:50.776Z,15.61
2018-06-04T03:35:50.995Z,15.77
2018-06-04T03:36:51.227Z,15.73
2018-06-04T03:37:51.457Z,15.65
2018-06-04T03:38:51.689Z,15.61
2018-06-04T03:39:51.920Z,15.62
2018-06-04T03:40:52.152Z,15.70
2018-06-04T03:41:52.382Z,15.68
2018-06-04T03:42:52.615Z,15.76
2018-06-04T03:43:52.845Z,15.79
2018-06-04T03:44:53.077Z,15.86
2018-06-04T03:45:53.310Z,15.88
2018-06-04T03:46:53.543Z,15.83
2018-06-04T03:47:53.774Z,15.88
2018-06-04T03:48:54.003Z,15.88
2018-06-04T03:49:54.236Z,15.88
2018-06-04T03:50:54.466Z,16.00
2018-06-04T03:51:54.697Z,15.92
2018-06-04T03:52:54.929Z,15.91
2018-06-04T03:53:55.162Z,15.95
2018-06-04T03:54:55.397Z,16.09
2018-06-04T03:55:55.624Z,16.09
2018-06-04T03:56:55.857Z,16.26
2018-06-04T03:57:56.094Z,16.47
2018-06-04T03:58:56.320Z,16.69
2018-06-04T03:59:56.548Z,16.86
2018-06-04T04:00:56.782Z,17.02
2018-06-04T04:01:57.013Z,17.08
2018-06-04T04:02:57.308Z,17.12
2018-06-04T04:03:57.477Z,17.09
2018-06-04T04:04:57.709Z,17.11
2018-06-04T04:05:57.941Z,17.27
2018-06-04T04:06:58.171Z,17.42
2018-06-04T04:07:58.402Z,17.57
2018-06-04T04:08:58.636Z,17.85
2018-06-04T04:09:58.867Z,18.10
2018-06-04T04:10:59.100Z,18.26
2018-06-04T04:11:59.329Z,18.47
2018-06-04T04:12:59.567Z,18.53
2018-06-04T04:13:59.804Z,18.49
2018-06-04T04:15:00.028Z,18.66
2018-06-04T04:16:00.262Z,18.62
2018-06-04T04:17:00.496Z,18.55
2018-06-04T04:18:00.725Z,18.59
2018-06-04T04:19:00.956Z,18.50
2018-06-04T04:20:01.190Z,18.63
2018-06-04T04:21:01.427Z,18.75
2018-06-04T04:22:01.657Z,18.50
2018-06-04T04:23:01.890Z,18.56
2018-06-04T04:24:02.124Z,18.47
2018-06-04T04:25:02.357Z,18.78
2018-06-04T04:26:02.591Z,18.66
2018-06-04T04:27:02.824Z,18.90
2018-06-04T04:28:03.072Z,19.21
2018-06-04T04:29:03.290Z,19.40
2018-06-04T04:30:03.524Z,19.58
2018-06-04T04:31:03.758Z,19.62
2018-06-04T04:32:03.992Z,19.54
2018-06-04T04:33:04.226Z,19.76
2018-06-04T04:34:04.464Z,19.92
2018-06-04T04:35:04.693Z,20.09
2018-06-04T04:36:04.925Z,20.26
2018-06-04T04:37:05.160Z,20.51
2018-06-04T04:38:05.394Z,20.59
2018-06-04T04:39:05.629Z,20.65
2018-06-04T04:40:05.865Z,20.41
2018-06-04T04:41:06.098Z,20.36
2018-06-04T04:42:06.333Z,20.19
2018-06-04T04:43:06.567Z,20.32
2018-06-04T04:44:06.804Z,20.19
2018-06-04T04:45:07.043Z,20.04
2018-06-04T04:46:07.275Z,19.85
2018-06-04T04:47:07.510Z,19.89
2018-06-04T04:48:07.742Z,20.26
2018-06-04T04:49:07.977Z,20.56
2018-06-04T04:50:08.214Z,20.95
2018-06-04T04:51:08.451Z,21.11
2018-06-04T04:52:08.686Z,21.40
2018-06-04T04:53:08.919Z,21.50
2018-06-04T04:54:09.154Z,21.67
2018-06-04T04:55:09.394Z,21.83
2018-06-04T04:56:09.629Z,22.17
2018-06-04T04:57:09.859Z,22.66
2018-06-04T04:58:10.096Z,22.78
2018-06-04T04:59:10.331Z,22.99
2018-06-04T05:00:10.569Z,23.37
2018-06-04T05:01:10.802Z,23.71
2018-06-04T05:02:11.040Z,23.91
2018-06-04T05:03:11.276Z,23.86
2018-06-04T05:04:11.511Z,24.08
2018-06-04T05:05:11.748Z,24.13
2018-06-04T05:06:11.985Z,24.10
2018-06-04T05:07:12.224Z,24.38
2018-06-04T05:08:12.460Z,24.76
2018-06-04T05:09:12.695Z,24.92
2018-06-04T05:10:12.934Z,25.21
2018-06-04T05:11:13.171Z,25.13
2018-06-04T05:12:13.408Z,25.23
2018-06-04T05:13:13.646Z,25.28
2018-06-04T05:14:13.884Z,25.35
2018-06-04T05:15:14.121Z,25.50
2018-06-04T05:16:14.357Z,25.50
2018-06-04T05:17:14.594Z,25.70
2018-06-04T05:18:14.834Z,25.83
2018-06-04T05:19:15.068Z,25.93
2018-06-04T05:20:15.310Z,26.07
2018-06-04T05:21:15.547Z,26.34
2018-06-04T05:22:15.784Z,26.03
2018-06-04T05:23:16.023Z,26.18
2018-06-04T05:24:16.261Z,26.70
2018-06-04T05:25:16.499Z,26.71
2018-06-04T05:26:16.738Z,27.08
2018-06-04T05:27:16.976Z,26.92
2018-06-04T05:28:17.214Z,26.77
2018-06-04T05:29:17.454Z,26.52
2018-06-04T05:30:17.695Z,26.74
2018-06-04T05:31:17.930Z,27.03
2018-06-04T05:32:18.171Z,27.10
2018-06-04T05:33:18.412Z,27.08
2018-06-04T05:34:18.650Z,27.02
2018-06-04T05:35:18.893Z,26.74
2018-06-04T05:36:19.130Z,27.07
2018-06-04T05:37:19.369Z,27.11
2018-06-04T05:38:19.608Z,27.32
2018-06-04T05:39:19.848Z,27.20
2018-06-04T05:40:20.090Z,27.45
2018-06-04T05:41:20.329Z,27.65
2018-06-04T05:42:20.577Z,27.52
2018-06-04T05:43:20.808Z,27.60
2018-06-04T05:44:21.058Z,27.20
2018-06-04T05:45:21.289Z,27.60
2018-06-04T05:46:21.530Z,27.82
2018-06-04T05:47:21.767Z,27.63
2018-06-04T05:48:22.010Z,27.95
2018-06-04T05:49:22.250Z,27.87
2018-06-04T05:50:22.490Z,28.23
2018-06-04T05:51:22.737Z,28.19
2018-06-04T05:52:22.973Z,27.93
2018-06-04T05:53:23.215Z,28.29
2018-06-04T05:54:23.455Z,28.17
2018-06-04T05:55:23.695Z,28.27
2018-06-04T05:56:23.936Z,28.45
2018-06-04T05:57:24.177Z,28.07
2018-06-04T05:58:24.418Z,27.36
2018-06-04T05:59:24.663Z,27.32
2018-06-04T06:00:24.902Z,27.10
2018-06-04T06:01:25.142Z,27.49
2018-06-04T06:02:25.383Z,27.59
2018-06-04T06:03:25.633Z,27.93
2018-06-04T06:04:25.861Z,28.30
2018-06-04T06:05:26.102Z,28.69
2018-06-04T06:06:26.350Z,28.74
2018-06-04T06:07:26.584Z,28.85
2018-06-04T06:08:26.823Z,28.17
2018-06-04T06:09:27.064Z,28.12
2018-06-04T06:10:27.308Z,28.41
2018-06-04T06:11:27.547Z,28.47
2018-06-04T06:12:27.787Z,28.45
2018-06-04T06:13:28.025Z,28.04
2018-06-04T06:14:28.295Z,28.45
2018-06-04T06:15:28.498Z,27.85
2018-06-04T06:16:28.744Z,27.86
2018-06-04T06:17:28.982Z,28.33
2018-06-04T06:18:29.222Z,28.54
2018-06-04T06:19:29.464Z,28.76
2018-06-04T06:20:29.703Z,29.05
2018-06-04T06:21:29.949Z,29.04
2018-06-04T06:22:30.188Z,29.02
2018-06-04T06:23:30.430Z,29.35
2018-06-04T06:24:30.670Z,28.86
2018-06-04T06:25:30.911Z,28.94
2018-06-04T06:26:31.152Z,29.04
2018-06-04T06:27:31.393Z,29.01
2018-06-04T06:28:31.666Z,28.97
2018-06-04T06:29:31.877Z,28.62
2018-06-04T06:30:32.117Z,28.51
2018-06-04T06:31:32.360Z,29.10
2018-06-04T06:32:32.595Z,29.17
2018-06-04T06:33:32.837Z,29.17
2018-06-04T06:34:33.076Z,29.05
2018-06-04T06:35:33.318Z,29.12
2018-06-04T06:36:33.558Z,28.89
2018-06-04T06:37:33.819Z,29.13
2018-06-04T06:38:34.045Z,28.98
2018-06-04T06:39:34.284Z,29.32
2018-06-04T06:40:34.523Z,28.82
2018-06-04T06:41:34.764Z,28.64
2018-06-04T06:42:35.004Z,28.91
2018-06-04T06:43:35.249Z,29.14
2018-06-04T06:44:35.496Z,28.89
2018-06-04T06:45:35.735Z,28.86
2018-06-04T06:46:35.979Z,28.57
2018-06-04T06:47:36.218Z,27.96
2018-06-04T06:48:36.458Z,27.47
2018-06-04T06:49:36.696Z,27.07
2018-06-04T06:50:36.939Z,27.05
2018-06-04T06:51:37.180Z,26.85
2018-06-04T06:52:37.422Z,26.80
2018-06-04T06:53:37.660Z,26.95
2018-06-04T06:54:37.900Z,27.00
2018-06-04T06:55:38.140Z,26.68
2018-06-04T06:56:38.382Z,26.10
2018-06-04T06:57:38.621Z,26.10
2018-06-04T06:58:38.860Z,26.07
2018-06-04T06:59:39.103Z,26.13
2018-06-04T07:00:39.341Z,25.85
2018-06-04T07:01:39.602Z,25.65
2018-06-04T07:02:39.819Z,25.10
2018-06-04T07:03:40.057Z,24.86
2018-06-04T07:04:40.299Z,24.77
2018-06-04T07:05:40.533Z,24.95
2018-06-04T07:06:40.773Z,25.04
2018-06-04T07:07:41.064Z,25.21
2018-06-04T07:08:41.249Z,24.74
2018-06-04T07:09:41.491Z,24.78
2018-06-04T07:10:41.739Z,24.80
2018-06-04T07:11:41.974Z,24.80
2018-06-04T07:12:42.211Z,25.04
2018-06-04T07:13:42.450Z,25.33
2018-06-04T07:14:42.688Z,25.21
2018-06-04T07:15:42.929Z,25.11
2018-06-04T07:16:43.170Z,24.84
2018-06-04T07:17:43.414Z,24.58
2018-06-04T07:18:43.649Z,24.70
2018-06-04T07:19:43.888Z,24.91
2018-06-04T07:20:44.127Z,24.89
2018-06-04T07:21:44.365Z,24.88
2018-06-04T07:22:44.599Z,24.95
2018-06-04T07:23:44.839Z,25.16
2018-06-04T07:24:45.080Z,25.25
2018-06-04T07:25:45.313Z,25.17
2018-06-04T07:26:45.609Z,25.11
2018-06-04T07:27:45.789Z,25.03
2018-06-04T07:28:46.028Z,24.91
2018-06-04T07:29:46.265Z,24.95
2018-06-04T07:30:46.500Z,24.86
2018-06-04T07:31:46.737Z,24.99
2018-06-04T07:32:46.974Z,25.13
2018-06-04T07:33:47.209Z,25.17
2018-06-04T07:34:47.494Z,25.28
2018-06-04T07:35:47.687Z,25.35
2018-06-04T07:36:47.923Z,25.35
2018-06-04T07:37:48.161Z,25.38
2018-06-04T07:38:48.389Z,25.35
2018-06-04T07:39:48.637Z,25.16
2018-06-04T07:40:48.875Z,25.16
2018-06-04T07:41:49.115Z,25.04
2018-06-04T07:42:49.353Z,25.11
2018-06-04T07:43:49.588Z,25.10
2018-06-04T07:44:49.826Z,25.10
2018-06-04T07:45:50.109Z,24.86
2018-06-04T07:46:50.299Z,24.89
2018-06-04T07:47:50.554Z,24.93
2018-06-04T07:48:50.774Z,25.13
2018-06-04T07:49:51.011Z,25.25
2018-06-04T07:50:51.246Z,25.36
2018-06-04T07:51:51.483Z,25.41
2018-06-04T07:52:51.719Z,25.62
2018-06-04T07:53:51.953Z,25.65
2018-06-04T07:54:52.191Z,25.70
2018-06-04T07:55:52.429Z,25.65
2018-06-04T07:56:52.664Z,25.69
2018-06-04T07:57:52.901Z,25.85
2018-06-04T07:58:53.140Z,25.90
2018-06-04T07:59:53.377Z,25.95
2018-06-04T08:00:53.612Z,25.96
2018-06-04T08:01:53.853Z,25.98
2018-06-04T08:02:54.087Z,25.98
2018-06-04T08:03:54.325Z,25.99
2018-06-04T08:04:54.562Z,25.99
2018-06-04T08:05:54.801Z,25.96
2018-06-04T08:06:55.035Z,26.21
2018-06-04T08:07:55.271Z,26.33
2018-06-04T08:08:55.510Z,26.36
2018-06-04T08:09:55.800Z,26.51
2018-06-04T08:10:55.977Z,26.45
2018-06-04T08:11:56.218Z,26.58
2018-06-04T08:12:56.454Z,26.71
2018-06-04T08:13:56.691Z,26.66
2018-06-04T08:14:56.929Z,26.80
2018-06-04T08:15:57.167Z,26.59
2018-06-04T08:16:57.402Z,26.63
2018-06-04T08:17:57.642Z,26.56
2018-06-04T08:18:57.875Z,26.58
2018-06-04T08:19:58.114Z,26.55
2018-06-04T08:20:58.348Z,26.28
2018-06-04T08:21:58.584Z,26.31
2018-06-04T08:22:58.821Z,26.23
2018-06-04T08:23:59.061Z,26.09
2018-06-04T08:24:59.295Z,26.15
2018-06-04T08:25:59.532Z,26.16
2018-06-04T08:26:59.769Z,26.23
2018-06-04T08:28:00.005Z,26.37
2018-06-04T08:29:00.246Z,26.36
2018-06-04T08:30:00.483Z,26.44
2018-06-04T08:31:00.726Z,26.31
2018-06-04T08:32:00.956Z,26.31
2018-06-04T08:33:01.195Z,26.22
2018-06-04T08:34:01.429Z,26.29
2018-06-04T08:35:01.671Z,26.47
2018-06-04T08:36:01.905Z,26.45
2018-06-04T08:37:02.143Z,26.31
2018-06-04T08:38:02.381Z,26.22
2018-06-04T08:39:02.618Z,26.34
2018-06-04T08:40:02.853Z,26.34
2018-06-04T08:41:03.091Z,26.33
2018-06-04T08:42:03.326Z,26.25
2018-06-04T08:43:03.564Z,26.26
2018-06-04T08:44:03.800Z,26.52
2018-06-04T08:45:04.167Z,26.55
2018-06-04T08:46:04.228Z,26.73
2018-06-04T08:47:04.470Z,26.73
2018-06-04T08:48:04.696Z,26.59
2018-06-04T08:49:04.936Z,26.43
2018-06-04T08:50:05.181Z,26.38
2018-06-04T08:51:05.421Z,26.40
2018-06-04T08:52:05.657Z,26.53
2018-06-04T08:53:05.894Z,26.53
2018-06-04T08:54:06.131Z,26.52
2018-06-04T08:55:06.369Z,26.66
2018-06-04T08:56:06.607Z,26.60
2018-06-04T08:57:06.847Z,26.65
2018-06-04T08:58:07.083Z,26.59
2018-06-04T08:59:07.321Z,26.60
2018-06-04T09:00:07.557Z,26.73
2018-06-04T09:01:07.792Z,26.75
2018-06-04T09:02:08.032Z,26.74
2018-06-04T09:03:08.271Z,26.77
2018-06-04T09:04:08.505Z,26.77
2018-06-04T09:05:08.742Z,26.84
2018-06-04T09:06:08.982Z,27.07
2018-06-04T09:07:09.216Z,27.11
2018-06-04T09:08:09.452Z,27.12
2018-06-04T09:09:09.692Z,27.10
2018-06-04T09:10:09.926Z,27.21
2018-06-04T09:11:10.163Z,27.18
2018-06-04T09:12:10.399Z,27.08
2018-06-04T09:13:10.637Z,27.15
2018-06-04T09:14:10.876Z,27.21
2018-06-04T09:15:11.112Z,27.25
2018-06-04T09:16:11.348Z,27.33
2018-06-04T09:17:11.587Z,27.29
2018-06-04T09:18:11.824Z,27.30
2018-06-04T09:19:12.065Z,27.36
2018-06-04T09:20:12.308Z,27.29
2018-06-04T09:21:12.546Z,27.26
2018-06-04T09:22:12.785Z,27.33
2018-06-04T09:23:13.021Z,27.29
2018-06-04T09:24:13.258Z,27.33
2018-06-04T09:25:13.499Z,27.29
2018-06-04T09:26:13.735Z,27.20
2018-06-04T09:27:13.972Z,27.22
2018-06-04T09:28:14.206Z,27.18
2018-06-04T09:29:14.446Z,27.39
2018-06-04T09:30:14.690Z,27.55
2018-06-04T09:31:14.934Z,27.58
2018-06-04T09:32:15.191Z,27.68
2018-06-04T09:33:15.404Z,27.65
2018-06-04T09:34:15.641Z,27.86
2018-06-04T09:35:15.876Z,27.89
2018-06-04T09:36:16.114Z,28.00
2018-06-04T09:37:16.353Z,27.83
2018-06-04T09:38:16.589Z,27.67
2018-06-04T09:39:16.831Z,27.82
2018-06-04T09:40:17.070Z,27.85
2018-06-04T09:41:17.315Z,27.92
2018-06-04T09:42:17.540Z,28.00
2018-06-04T09:43:17.780Z,28.00
2018-06-04T09:44:18.023Z,28.04
2018-06-04T09:45:18.261Z,28.02
2018-06-04T09:46:18.499Z,28.04
2018-06-04T09:47:18.746Z,27.86
2018-06-04T09:48:18.981Z,28.08
2018-06-04T09:49:19.217Z,28.00
2018-06-04T09:50:19.456Z,27.96
2018-06-04T09:51:19.695Z,27.83
2018-06-04T09:52:19.932Z,27.68
2018-06-04T09:53:20.168Z,27.75
2018-06-04T09:54:20.406Z,27.86
2018-06-04T09:55:20.643Z,28.02
2018-06-04T09:56:20.887Z,27.95
2018-06-04T09:57:21.118Z,28.05
2018-06-04T09:58:21.356Z,27.96
2018-06-04T09:59:21.600Z,28.05
2018-06-04T10:00:21.842Z,28.14
2018-06-04T10:01:22.077Z,27.98
2018-06-04T10:02:22.312Z,27.93
2018-06-04T10:03:22.552Z,27.98
2018-06-04T10:04:22.791Z,28.02
2018-06-04T10:05:23.027Z,28.07
2018-06-04T10:06:23.268Z,28.15
2018-06-04T10:07:23.509Z,28.25
2018-06-04T10:08:23.744Z,28.22
2018-06-04T10:09:23.982Z,28.37
2018-06-04T10:10:24.220Z,28.47
2018-06-04T10:11:24.459Z,28.44
2018-06-04T10:12:24.695Z,28.44
2018-06-04T10:13:24.950Z,28.35
2018-06-04T10:14:25.172Z,28.30
2018-06-04T10:15:25.422Z,28.25
2018-06-04T10:16:25.644Z,28.38
2018-06-04T10:17:25.884Z,28.25
2018-06-04T10:18:26.122Z,28.25
2018-06-04T10:19:26.363Z,28.12
2018-06-04T10:20:26.597Z,28.27
2018-06-04T10:21:26.835Z,28.10
2018-06-04T10:22:27.077Z,28.07
2018-06-04T10:23:27.328Z,28.00
2018-06-04T10:24:27.553Z,28.00
2018-06-04T10:25:27.796Z,27.89
2018-06-04T10:26:28.032Z,27.82
2018-06-04T10:27:28.276Z,27.82
2018-06-04T10:28:28.506Z,27.77
2018-06-04T10:29:28.744Z,27.74
2018-06-04T10:30:28.984Z,27.77
2018-06-04T10:31:29.220Z,27.82
2018-06-04T10:32:29.456Z,28.02
2018-06-04T10:33:29.736Z,28.15
2018-06-04T10:34:29.930Z,28.32
2018-06-04T10:35:30.166Z,28.39
2018-06-04T10:36:30.405Z,28.41
2018-06-04T10:37:30.639Z,28.45
2018-06-04T10:38:30.877Z,28.56
2018-06-04T10:39:31.113Z,28.60
2018-06-04T10:40:31.429Z,28.75
2018-06-04T10:41:31.576Z,28.81
2018-06-04T10:42:31.816Z,28.88
2018-06-04T10:43:32.050Z,28.85
2018-06-04T10:44:32.290Z,28.89
2018-06-04T10:45:32.533Z,28.72
2018-06-04T10:46:32.825Z,28.54
2018-06-04T10:47:33.008Z,28.59
2018-06-04T10:48:33.246Z,28.47
2018-06-04T10:49:33.484Z,28.42
2018-06-04T10:50:33.724Z,28.44
2018-06-04T10:51:33.959Z,28.44
2018-06-04T10:52:34.195Z,28.38
2018-06-04T10:53:34.439Z,28.45
2018-06-04T10:54:34.667Z,28.51
2018-06-04T10:55:34.904Z,28.60
2018-06-04T10:56:35.141Z,28.76
2018-06-04T10:57:35.403Z,28.75
2018-06-04T10:58:35.618Z,28.91
2018-06-04T10:59:35.855Z,28.89
2018-06-04T11:00:36.094Z,28.91
2018-06-04T11:01:36.331Z,28.74
2018-06-04T11:02:36.579Z,28.84
2018-06-04T11:03:36.803Z,28.75
2018-06-04T11:04:37.044Z,28.75
2018-06-04T11:05:37.280Z,28.86
2018-06-04T11:06:37.526Z,28.91
2018-06-04T11:07:37.760Z,28.85
2018-06-04T11:08:37.995Z,28.97
2018-06-04T11:09:38.234Z,29.13
2018-06-04T11:10:38.473Z,29.10
2018-06-04T11:11:38.710Z,29.07
2018-06-04T11:12:38.943Z,29.10
2018-06-04T11:13:39.187Z,28.98
2018-06-04T11:14:39.420Z,28.96
2018-06-04T11:15:39.659Z,28.97
2018-06-04T11:16:39.899Z,29.01
2018-06-04T11:17:40.141Z,29.01
2018-06-04T11:18:40.378Z,28.96
2018-06-04T11:19:40.613Z,29.13
2018-06-04T11:20:40.854Z,29.13
2018-06-04T11:21:41.093Z,29.26
2018-06-04T11:22:41.328Z,29.24
2018-06-04T11:23:41.568Z,29.10
2018-06-04T11:24:41.807Z,29.04
2018-06-04T11:25:42.116Z,29.22
2018-06-04T11:26:42.286Z,29.26
2018-06-04T11:27:42.521Z,29.29
2018-06-04T11:28:42.761Z,29.20
2018-06-04T11:29:43.009Z,28.97
2018-06-04T11:30:43.238Z,29.02
2018-06-04T11:31:43.480Z,28.94
2018-06-04T11:32:43.715Z,28.96
2018-06-04T11:33:43.975Z,29.02
2018-06-04T11:34:44.186Z,29.07
2018-06-04T11:35:44.422Z,29.10
2018-06-04T11:36:44.657Z,29.14
2018-06-04T11:37:44.896Z,29.23
2018-06-04T11:38:45.132Z,29.29
2018-06-04T11:39:45.379Z,29.38
2018-06-04T11:40:45.613Z,29.32
2018-06-04T11:41:45.873Z,29.34
2018-06-04T11:42:46.120Z,29.35
2018-06-04T11:43:46.350Z,29.27
2018-06-04T11:44:46.591Z,29.31
2018-06-04T11:45:46.829Z,29.29
2018-06-04T11:46:47.073Z,29.24
2018-06-04T11:47:47.320Z,29.24
2018-06-04T11:48:47.547Z,29.31
2018-06-04T11:49:47.786Z,29.23
2018-06-04T11:50:48.030Z,29.16
2018-06-04T11:51:48.260Z,29.12
2018-06-04T11:52:48.501Z,29.23
2018-06-04T11:53:48.744Z,29.20
2018-06-04T11:54:48.981Z,29.17
2018-06-04T11:55:49.233Z,29.31
2018-06-04T11:56:49.499Z,29.44
2018-06-04T11:57:49.708Z,29.51
2018-06-04T11:58:49.947Z,29.61
2018-06-04T11:59:50.187Z,29.68
2018-06-04T12:00:50.429Z,29.73
2018-06-04T12:01:50.663Z,29.79
2018-06-04T12:02:50.901Z,29.81
2018-06-04T12:03:51.140Z,29.72
2018-06-04T12:04:51.377Z,29.36
2018-06-04T12:05:51.622Z,29.16
2018-06-04T12:06:51.854Z,29.19
2018-06-04T12:07:52.093Z,29.08
2018-06-04T12:08:52.330Z,28.97
2018-06-04T12:09:52.581Z,28.96
2018-06-04T12:10:52.806Z,29.13
2018-06-04T12:11:53.091Z,29.10
2018-06-04T12:12:53.287Z,29.26
2018-06-04T12:13:53.524Z,29.29
2018-06-04T12:14:53.768Z,29.23
2018-06-04T12:15:54.004Z,29.29
2018-06-04T12:16:54.245Z,29.27
2018-06-04T12:17:54.482Z,29.23
2018-06-04T12:18:54.721Z,29.13
2018-06-04T12:19:54.959Z,29.14
2018-06-04T12:20:55.195Z,29.12
2018-06-04T12:21:55.434Z,29.26
2018-06-04T12:22:55.674Z,29.14
2018-06-04T12:23:55.923Z,29.14
2018-06-04T12:24:56.165Z,29.12
2018-06-04T12:25:56.399Z,29.17
2018-06-04T12:26:56.638Z,29.22
2018-06-04T12:27:56.881Z,29.20
2018-06-04T12:28:57.116Z,29.14
2018-06-04T12:29:57.355Z,29.27
2018-06-04T12:30:57.591Z,29.39
2018-06-04T12:31:57.829Z,29.50
2018-06-04T12:32:58.068Z,29.45
2018-06-04T12:33:58.308Z,29.66
2018-06-04T12:34:58.546Z,29.78
2018-06-04T12:35:58.787Z,29.73
2018-06-04T12:36:59.025Z,29.72
2018-06-04T12:37:59.268Z,29.69
2018-06-04T12:38:59.507Z,29.66
2018-06-04T12:39:59.755Z,29.66
2018-06-04T12:40:59.981Z,29.73
2018-06-04T12:42:00.218Z,29.84
2018-06-04T12:43:00.458Z,29.79
2018-06-04T12:44:00.695Z,29.93
2018-06-04T12:45:00.935Z,29.72
2018-06-04T12:46:01.174Z,29.66
2018-06-04T12:47:01.415Z,29.61
2018-06-04T12:48:01.649Z,29.71
2018-06-04T12:49:01.888Z,29.53
2018-06-04T12:50:02.127Z,29.45
2018-06-04T12:51:02.366Z,29.34
2018-06-04T12:52:02.605Z,29.17
2018-06-04T12:53:02.846Z,28.72
2018-06-04T12:54:03.085Z,28.85
2018-06-04T12:55:03.323Z,28.98